sensor_id;sensor_type;location;lat;lon;timestamp;temperature;humidity
25753;DHT22;13600;50.816;4.416;2022-10-18T00:00:52;18.00;99.90
25753;DHT22;13600;50.816;4.416;2022-10-18T00:03:18;17.90;99.90
25753;DHT22;13600;50.816;4.416;2022-10-18T00:05:43;17.80;99.90
25753;DHT22;13600;50.816;4.416;2022-10-18T00:08:09;17.80;99.90
25753;DHT22;13600;50.816;4.416;2022-10-18T00:10:35;17.80;99.90
25753;DHT22;13600;50.816;4.416;2022-10-18T00:13:00;17.80;99.90
25753;DHT22;13600;50.816;4.416;2022-10-18T00:15:26;17.90;99.90
25753;DHT22;13600;50.816;4.416;2022-10-18T00:17:51;17.90;99.90
25753;DHT22;13600;50.816;4.416;2022-10-18T00:20:17;17.80;99.90
25753;DHT22;13600;50.816;4.416;2022-10-18T00:22:43;17.90;99.90
25753;DHT22;13600;50.816;4.416;2022-10-18T00:25:08;17.80;99.90
25753;DHT22;13600;50.816;4.416;2022-10-18T00:27:35;17.80;99.90
25753;DHT22;13600;50.816;4.416;2022-10-18T00:30:01;17.70;99.90
25753;DHT22;13600;50.816;4.416;2022-10-18T00:32:26;17.60;99.90
25753;DHT22;13600;50.816;4.416;2022-10-18T00:34:52;17.60;99.90
25753;DHT22;13600;50.816;4.416;2022-10-18T00:37:18;17.60;99.90
25753;DHT22;13600;50.816;4.416;2022-10-18T00:39:44;17.70;99.90
25753;DHT22;13600;50.816;4.416;2022-10-18T00:42:18;17.70;99.90
25753;DHT22;13600;50.816;4.416;2022-10-18T00:47:11;17.80;99.90
25753;DHT22;13600;50.816;4.416;2022-10-18T00:49:43;17.90;99.90
25753;DHT22;13600;50.816;4.416;2022-10-18T00:52:41;18.10;99.90
25753;DHT22;13600;50.816;4.416;2022-10-18T00:55:08;18.10;99.90
25753;DHT22;13600;50.816;4.416;2022-10-18T00:57:35;18.00;99.90
25753;DHT22;13600;50.816;4.416;2022-10-18T01:00:03;17.80;99.90
25753;DHT22;13600;50.816;4.416;2022-10-18T01:02:36;17.70;99.90
25753;DHT22;13600;50.816;4.416;2022-10-18T01:05:02;17.90;99.90
25753;DHT22;13600;50.816;4.416;2022-10-18T01:07:56;18.10;99.90
25753;DHT22;13600;50.816;4.416;2022-10-18T01:10:40;17.90;99.90
25753;DHT22;13600;50.816;4.416;2022-10-18T01:31:33;17.60;99.90
25753;DHT22;13600;50.816;4.416;2022-10-18T01:34:05;17.60;99.90
25753;DHT22;13600;50.816;4.416;2022-10-18T01:36:34;17.80;99.90
25753;DHT22;13600;50.816;4.416;2022-10-18T01:39:05;17.70;99.90
25753;DHT22;13600;50.816;4.416;2022-10-18T01:41:34;17.70;99.90
25753;DHT22;13600;50.816;4.416;2022-10-18T01:44:02;17.60;99.90
25753;DHT22;13600;50.816;4.416;2022-10-18T01:46:29;17.60;99.90
25753;DHT22;13600;50.816;4.416;2022-10-18T01:48:55;17.60;99.90
25753;DHT22;13600;50.816;4.416;2022-10-18T01:51:32;17.60;99.90
25753;DHT22;13600;50.816;4.416;2022-10-18T01:53:58;17.60;99.90
25753;DHT22;13600;50.816;4.416;2022-10-18T02:01:32;17.60;99.90
25753;DHT22;13600;50.816;4.416;2022-10-18T02:04:06;17.70;99.90
25753;DHT22;13600;50.816;4.416;2022-10-18T02:06:37;17.50;99.90
25753;DHT22;13600;50.816;4.416;2022-10-18T02:09:11;17.50;99.90
25753;DHT22;13600;50.816;4.416;2022-10-18T02:11:39;17.40;99.90
25753;DHT22;13600;50.816;4.416;2022-10-18T02:14:11;17.50;99.90
25753;DHT22;13600;50.816;4.416;2022-10-18T02:16:40;17.50;99.90
25753;DHT22;13600;50.816;4.416;2022-10-18T02:19:16;17.50;99.90
25753;DHT22;13600;50.816;4.416;2022-10-18T02:21:44;17.50;99.90
25753;DHT22;13600;50.816;4.416;2022-10-18T02:24:13;17.60;99.90
25753;DHT22;13600;50.816;4.416;2022-10-18T02:26:39;17.50;99.90
25753;DHT22;13600;50.816;4.416;2022-10-18T02:29:05;17.60;99.90
25753;DHT22;13600;50.816;4.416;2022-10-18T02:31:47;17.50;99.90
25753;DHT22;13600;50.816;4.416;2022-10-18T02:34:22;17.50;99.90
25753;DHT22;13600;50.816;4.416;2022-10-18T02:36:51;17.50;99.90
25753;DHT22;13600;50.816;4.416;2022-10-18T02:39:24;17.50;99.90
25753;DHT22;13600;50.816;4.416;2022-10-18T02:41:53;17.50;99.90
25753;DHT22;13600;50.816;4.416;2022-10-18T02:44:19;17.60;99.90
25753;DHT22;13600;50.816;4.416;2022-10-18T02:46:45;17.50;99.90
25753;DHT22;13600;50.816;4.416;2022-10-18T02:49:11;17.50;99.90
25753;DHT22;13600;50.816;4.416;2022-10-18T02:51:37;17.50;99.90
25753;DHT22;13600;50.816;4.416;2022-10-18T02:54:04;17.40;99.90
25753;DHT22;13600;50.816;4.416;2022-10-18T02:56:30;17.50;99.90
25753;DHT22;13600;50.816;4.416;2022-10-18T02:58:56;17.50;99.90
25753;DHT22;13600;50.816;4.416;2022-10-18T03:01:21;17.50;99.90
25753;DHT22;13600;50.816;4.416;2022-10-18T03:03:47;17.60;99.90
25753;DHT22;13600;50.816;4.416;2022-10-18T03:06:13;17.60;99.90
25753;DHT22;13600;50.816;4.416;2022-10-18T03:08:38;17.70;99.90
25753;DHT22;13600;50.816;4.416;2022-10-18T03:11:04;17.60;99.90
25753;DHT22;13600;50.816;4.416;2022-10-18T03:13:30;17.60;99.90
25753;DHT22;13600;50.816;4.416;2022-10-18T03:15:55;17.70;99.90
25753;DHT22;13600;50.816;4.416;2022-10-18T03:18:21;17.60;99.90
25753;DHT22;13600;50.816;4.416;2022-10-18T03:20:47;17.60;99.90
25753;DHT22;13600;50.816;4.416;2022-10-18T03:23:12;17.50;99.90
25753;DHT22;13600;50.816;4.416;2022-10-18T03:25:38;17.60;99.90
25753;DHT22;13600;50.816;4.416;2022-10-18T03:28:03;17.60;99.90
25753;DHT22;13600;50.816;4.416;2022-10-18T03:30:29;17.60;99.90
25753;DHT22;13600;50.816;4.416;2022-10-18T03:32:55;17.60;99.90
25753;DHT22;13600;50.816;4.416;2022-10-18T03:35:21;17.60;99.90
25753;DHT22;13600;50.816;4.416;2022-10-18T03:37:47;17.70;99.90
25753;DHT22;13600;50.816;4.416;2022-10-18T03:40:13;17.60;99.90
25753;DHT22;13600;50.816;4.416;2022-10-18T03:42:38;17.60;99.90
25753;DHT22;13600;50.816;4.416;2022-10-18T03:45:05;17.80;99.90
25753;DHT22;13600;50.816;4.416;2022-10-18T03:47:30;18.00;99.90
25753;DHT22;13600;50.816;4.416;2022-10-18T03:49:56;18.00;99.90
25753;DHT22;13600;50.816;4.416;2022-10-18T03:52:22;18.00;99.90
25753;DHT22;13600;50.816;4.416;2022-10-18T03:54:48;18.00;99.90
25753;DHT22;13600;50.816;4.416;2022-10-18T03:57:13;18.00;99.90
25753;DHT22;13600;50.816;4.416;2022-10-18T03:59:39;18.00;99.90
25753;DHT22;13600;50.816;4.416;2022-10-18T04:02:05;18.00;99.90
25753;DHT22;13600;50.816;4.416;2022-10-18T04:04:30;18.00;99.90
25753;DHT22;13600;50.816;4.416;2022-10-18T04:06:56;17.90;99.90
25753;DHT22;13600;50.816;4.416;2022-10-18T04:09:21;17.90;99.90
25753;DHT22;13600;50.816;4.416;2022-10-18T04:11:50;17.80;99.90
25753;DHT22;13600;50.816;4.416;2022-10-18T04:14:17;17.80;99.90
25753;DHT22;13600;50.816;4.416;2022-10-18T04:16:43;17.80;99.90
25753;DHT22;13600;50.816;4.416;2022-10-18T04:19:08;17.70;99.90
25753;DHT22;13600;50.816;4.416;2022-10-18T04:21:34;17.70;99.90
25753;DHT22;13600;50.816;4.416;2022-10-18T04:23:59;17.50;99.90
25753;DHT22;13600;50.816;4.416;2022-10-18T04:26:25;17.50;99.90
25753;DHT22;13600;50.816;4.416;2022-10-18T04:28:51;17.50;99.90
25753;DHT22;13600;50.816;4.416;2022-10-18T04:31:16;17.50;99.90
25753;DHT22;13600;50.816;4.416;2022-10-18T04:33:42;17.50;99.90
25753;DHT22;13600;50.816;4.416;2022-10-18T04:36:08;17.60;99.90
25753;DHT22;13600;50.816;4.416;2022-10-18T04:38:33;17.60;99.90
25753;DHT22;13600;50.816;4.416;2022-10-18T04:40:59;17.60;99.90
25753;DHT22;13600;50.816;4.416;2022-10-18T04:43:25;17.60;99.90
25753;DHT22;13600;50.816;4.416;2022-10-18T04:45:50;17.60;99.90
25753;DHT22;13600;50.816;4.416;2022-10-18T04:48:17;17.60;99.90
25753;DHT22;13600;50.816;4.416;2022-10-18T04:50:42;17.50;99.90
25753;DHT22;13600;50.816;4.416;2022-10-18T04:53:08;17.60;99.90
25753;DHT22;13600;50.816;4.416;2022-10-18T04:55:34;17.60;99.90
25753;DHT22;13600;50.816;4.416;2022-10-18T04:58:00;17.60;99.90
25753;DHT22;13600;50.816;4.416;2022-10-18T05:00:25;17.60;99.90
25753;DHT22;13600;50.816;4.416;2022-10-18T05:02:57;17.70;99.90
25753;DHT22;13600;50.816;4.416;2022-10-18T05:05:23;17.60;99.90
25753;DHT22;13600;50.816;4.416;2022-10-18T05:07:49;17.60;99.90
25753;DHT22;13600;50.816;4.416;2022-10-18T05:10:14;17.60;99.90
25753;DHT22;13600;50.816;4.416;2022-10-18T05:12:40;17.60;99.90
25753;DHT22;13600;50.816;4.416;2022-10-18T05:15:08;17.80;99.90
25753;DHT22;13600;50.816;4.416;2022-10-18T05:17:34;17.80;99.90
25753;DHT22;13600;50.816;4.416;2022-10-18T05:20:00;17.70;99.90
25753;DHT22;13600;50.816;4.416;2022-10-18T05:22:26;17.70;99.90
25753;DHT22;13600;50.816;4.416;2022-10-18T05:24:52;17.70;99.90
25753;DHT22;13600;50.816;4.416;2022-10-18T05:27:17;17.80;99.90
25753;DHT22;13600;50.816;4.416;2022-10-18T05:29:43;17.80;99.90
25753;DHT22;13600;50.816;4.416;2022-10-18T05:32:09;17.80;99.90
25753;DHT22;13600;50.816;4.416;2022-10-18T05:34:34;17.90;99.90
25753;DHT22;13600;50.816;4.416;2022-10-18T05:37:00;17.80;99.90
25753;DHT22;13600;50.816;4.416;2022-10-18T05:39:25;17.80;99.90
25753;DHT22;13600;50.816;4.416;2022-10-18T05:41:51;17.80;99.90
25753;DHT22;13600;50.816;4.416;2022-10-18T05:44:17;17.90;99.90
25753;DHT22;13600;50.816;4.416;2022-10-18T05:46:42;18.00;99.90
25753;DHT22;13600;50.816;4.416;2022-10-18T05:49:12;18.10;99.90
25753;DHT22;13600;50.816;4.416;2022-10-18T05:51:37;17.90;99.90
25753;DHT22;13600;50.816;4.416;2022-10-18T05:54:03;17.70;99.90
25753;DHT22;13600;50.816;4.416;2022-10-18T05:56:29;17.60;99.90
25753;DHT22;13600;50.816;4.416;2022-10-18T05:58:54;17.50;99.90
25753;DHT22;13600;50.816;4.416;2022-10-18T06:01:20;17.40;99.90
25753;DHT22;13600;50.816;4.416;2022-10-18T06:03:46;17.40;99.90
25753;DHT22;13600;50.816;4.416;2022-10-18T06:06:12;17.40;99.90
25753;DHT22;13600;50.816;4.416;2022-10-18T06:08:39;17.30;99.90
25753;DHT22;13600;50.816;4.416;2022-10-18T06:11:11;17.30;99.90
25753;DHT22;13600;50.816;4.416;2022-10-18T06:13:48;17.30;99.90
25753;DHT22;13600;50.816;4.416;2022-10-18T06:16:20;17.30;99.90
25753;DHT22;13600;50.816;4.416;2022-10-18T06:18:47;17.30;99.90
25753;DHT22;13600;50.816;4.416;2022-10-18T06:21:13;17.30;99.90
25753;DHT22;13600;50.816;4.416;2022-10-18T06:23:39;17.30;99.90
25753;DHT22;13600;50.816;4.416;2022-10-18T06:26:07;17.30;99.90
25753;DHT22;13600;50.816;4.416;2022-10-18T06:28:35;17.30;99.90
25753;DHT22;13600;50.816;4.416;2022-10-18T06:31:02;17.30;99.90
25753;DHT22;13600;50.816;4.416;2022-10-18T06:33:29;17.20;99.90
25753;DHT22;13600;50.816;4.416;2022-10-18T06:36:01;17.20;99.90
25753;DHT22;13600;50.816;4.416;2022-10-18T06:38:27;17.30;99.90
25753;DHT22;13600;50.816;4.416;2022-10-18T06:40:56;17.30;99.90
25753;DHT22;13600;50.816;4.416;2022-10-18T06:43:23;17.20;99.90
25753;DHT22;13600;50.816;4.416;2022-10-18T06:45:49;17.20;99.90
25753;DHT22;13600;50.816;4.416;2022-10-18T06:48:16;17.20;99.90
25753;DHT22;13600;50.816;4.416;2022-10-18T06:50:41;17.30;99.90
25753;DHT22;13600;50.816;4.416;2022-10-18T06:53:07;17.40;99.90
25753;DHT22;13600;50.816;4.416;2022-10-18T06:55:34;17.50;99.90
25753;DHT22;13600;50.816;4.416;2022-10-18T06:58:00;17.60;99.90
25753;DHT22;13600;50.816;4.416;2022-10-18T07:00:26;17.60;99.90
25753;DHT22;13600;50.816;4.416;2022-10-18T07:02:52;17.60;99.90
25753;DHT22;13600;50.816;4.416;2022-10-18T07:05:17;17.50;99.90
25753;DHT22;13600;50.816;4.416;2022-10-18T07:07:43;17.50;99.90
25753;DHT22;13600;50.816;4.416;2022-10-18T07:10:09;17.50;99.90
25753;DHT22;13600;50.816;4.416;2022-10-18T07:12:34;17.40;99.90
25753;DHT22;13600;50.816;4.416;2022-10-18T07:15:00;17.40;99.90
25753;DHT22;13600;50.816;4.416;2022-10-18T07:17:26;17.30;99.90
25753;DHT22;13600;50.816;4.416;2022-10-18T07:19:51;17.20;99.90
25753;DHT22;13600;50.816;4.416;2022-10-18T07:22:17;17.30;99.90
25753;DHT22;13600;50.816;4.416;2022-10-18T07:24:42;17.30;99.90
25753;DHT22;13600;50.816;4.416;2022-10-18T07:27:08;17.20;99.90
25753;DHT22;13600;50.816;4.416;2022-10-18T07:29:34;17.20;99.90
25753;DHT22;13600;50.816;4.416;2022-10-18T07:32:02;17.40;99.90
25753;DHT22;13600;50.816;4.416;2022-10-18T07:34:28;17.50;99.90
25753;DHT22;13600;50.816;4.416;2022-10-18T07:36:54;17.50;99.90
25753;DHT22;13600;50.816;4.416;2022-10-18T07:39:19;17.60;99.90
25753;DHT22;13600;50.816;4.416;2022-10-18T07:41:45;17.50;99.90
25753;DHT22;13600;50.816;4.416;2022-10-18T07:44:10;17.50;99.90
25753;DHT22;13600;50.816;4.416;2022-10-18T07:46:36;17.40;99.90
25753;DHT22;13600;50.816;4.416;2022-10-18T07:49:02;17.40;99.90
25753;DHT22;13600;50.816;4.416;2022-10-18T07:51:28;17.40;99.90
25753;DHT22;13600;50.816;4.416;2022-10-18T07:53:56;17.40;99.90
25753;DHT22;13600;50.816;4.416;2022-10-18T07:56:22;17.60;99.90
25753;DHT22;13600;50.816;4.416;2022-10-18T07:58:50;17.70;99.90
25753;DHT22;13600;50.816;4.416;2022-10-18T08:01:17;17.90;99.90
25753;DHT22;13600;50.816;4.416;2022-10-18T08:03:43;18.10;99.90
25753;DHT22;13600;50.816;4.416;2022-10-18T08:06:10;18.20;99.90
25753;DHT22;13600;50.816;4.416;2022-10-18T08:08:37;18.30;99.90
25753;DHT22;13600;50.816;4.416;2022-10-18T08:11:24;18.30;99.90
25753;DHT22;13600;50.816;4.416;2022-10-18T08:13:52;18.40;99.90
25753;DHT22;13600;50.816;4.416;2022-10-18T08:16:26;18.50;99.90
25753;DHT22;13600;50.816;4.416;2022-10-18T08:18:52;18.60;99.90
25753;DHT22;13600;50.816;4.416;2022-10-18T08:21:19;18.70;99.90
25753;DHT22;13600;50.816;4.416;2022-10-18T08:23:46;18.90;99.90
25753;DHT22;13600;50.816;4.416;2022-10-18T08:26:16;19.00;99.90
25753;DHT22;13600;50.816;4.416;2022-10-18T08:28:42;19.10;99.90
25753;DHT22;13600;50.816;4.416;2022-10-18T08:31:13;19.40;99.90
25753;DHT22;13600;50.816;4.416;2022-10-18T08:33:41;19.70;99.90
25753;DHT22;13600;50.816;4.416;2022-10-18T08:36:08;20.20;99.90
25753;DHT22;13600;50.816;4.416;2022-10-18T08:38:36;21.40;99.90
25753;DHT22;13600;50.816;4.416;2022-10-18T08:46:39;28.50;99.90
25753;DHT22;13600;50.816;4.416;2022-10-18T08:49:13;29.70;99.90
25753;DHT22;13600;50.816;4.416;2022-10-18T08:51:45;31.30;99.90
25753;DHT22;13600;50.816;4.416;2022-10-18T08:54:14;32.50;99.90
25753;DHT22;13600;50.816;4.416;2022-10-18T08:56:45;33.40;98.70
25753;DHT22;13600;50.816;4.416;2022-10-18T08:59:12;34.20;95.00
25753;DHT22;13600;50.816;4.416;2022-10-18T09:01:53;35.00;93.90
25753;DHT22;13600;50.816;4.416;2022-10-18T09:04:47;35.70;90.50
25753;DHT22;13600;50.816;4.416;2022-10-18T09:18:12;36.30;77.50
25753;DHT22;13600;50.816;4.416;2022-10-18T09:21:19;35.80;77.90
25753;DHT22;13600;50.816;4.416;2022-10-18T09:23:49;34.80;79.10
25753;DHT22;13600;50.816;4.416;2022-10-18T09:26:21;35.10;77.90
25753;DHT22;13600;50.816;4.416;2022-10-18T09:31:28;34.70;79.40
25753;DHT22;13600;50.816;4.416;2022-10-18T09:33:55;35.00;80.80
25753;DHT22;13600;50.816;4.416;2022-10-18T09:36:25;35.80;79.10
25753;DHT22;13600;50.816;4.416;2022-10-18T09:38:57;36.40;77.50
25753;DHT22;13600;50.816;4.416;2022-10-18T09:46:24;36.50;73.30
25753;DHT22;13600;50.816;4.416;2022-10-18T09:49:02;37.40;71.90
25753;DHT22;13600;50.816;4.416;2022-10-18T09:51:36;38.00;68.90
25753;DHT22;13600;50.816;4.416;2022-10-18T09:56:51;37.60;69.90
25753;DHT22;13600;50.816;4.416;2022-10-18T10:01:59;38.50;66.40
25753;DHT22;13600;50.816;4.416;2022-10-18T10:04:25;38.40;66.00
25753;DHT22;13600;50.816;4.416;2022-10-18T10:06:52;38.70;67.00
25753;DHT22;13600;50.816;4.416;2022-10-18T10:09:41;38.70;65.10
25753;DHT22;13600;50.816;4.416;2022-10-18T10:15:26;38.80;61.90
25753;DHT22;13600;50.816;4.416;2022-10-18T10:18:18;39.20;62.00
25753;DHT22;13600;50.816;4.416;2022-10-18T10:20:47;38.30;60.10
25753;DHT22;13600;50.816;4.416;2022-10-18T10:23:23;36.50;63.60
25753;DHT22;13600;50.816;4.416;2022-10-18T10:26:04;33.10;69.60
25753;DHT22;13600;50.816;4.416;2022-10-18T10:28:34;32.60;72.50
25753;DHT22;13600;50.816;4.416;2022-10-18T10:31:26;33.70;72.10
25753;DHT22;13600;50.816;4.416;2022-10-18T10:34:02;34.70;66.60
25753;DHT22;13600;50.816;4.416;2022-10-18T10:36:29;35.00;66.80
25753;DHT22;13600;50.816;4.416;2022-10-18T10:39:22;35.00;67.40
25753;DHT22;13600;50.816;4.416;2022-10-18T10:41:55;36.40;67.20
25753;DHT22;13600;50.816;4.416;2022-10-18T10:44:24;37.40;64.40
25753;DHT22;13600;50.816;4.416;2022-10-18T10:46:51;38.60;61.80
25753;DHT22;13600;50.816;4.416;2022-10-18T10:49:21;38.70;60.60
25753;DHT22;13600;50.816;4.416;2022-10-18T10:52:16;37.70;62.50
25753;DHT22;13600;50.816;4.416;2022-10-18T10:54:43;36.70;64.40
25753;DHT22;13600;50.816;4.416;2022-10-18T11:04:53;38.00;59.50
25753;DHT22;13600;50.816;4.416;2022-10-18T11:07:32;38.90;57.60
25753;DHT22;13600;50.816;4.416;2022-10-18T11:12:45;39.10;57.20
25753;DHT22;13600;50.816;4.416;2022-10-18T11:15:28;39.60;56.60
25753;DHT22;13600;50.816;4.416;2022-10-18T11:20:50;39.40;55.30
25753;DHT22;13600;50.816;4.416;2022-10-18T11:23:18;39.90;55.50
25753;DHT22;13600;50.816;4.416;2022-10-18T11:48:29;40.10;50.30
25753;DHT22;13600;50.816;4.416;2022-10-18T11:55:55;36.10;55.20
25753;DHT22;13600;50.816;4.416;2022-10-18T11:58:29;35.50;55.60
25753;DHT22;13600;50.816;4.416;2022-10-18T12:01:32;35.90;56.90
25753;DHT22;13600;50.816;4.416;2022-10-18T12:04:13;36.10;57.30
25753;DHT22;13600;50.816;4.416;2022-10-18T12:06:42;36.90;55.90
25753;DHT22;13600;50.816;4.416;2022-10-18T12:09:29;37.90;55.70
25753;DHT22;13600;50.816;4.416;2022-10-18T12:12:02;39.10;54.10
25753;DHT22;13600;50.816;4.416;2022-10-18T12:14:46;39.30;53.20
25753;DHT22;13600;50.816;4.416;2022-10-18T12:17:31;40.00;53.10
25753;DHT22;13600;50.816;4.416;2022-10-18T12:20:02;40.30;51.10
25753;DHT22;13600;50.816;4.416;2022-10-18T12:22:35;40.20;51.20
25753;DHT22;13600;50.816;4.416;2022-10-18T12:25:03;41.10;51.90
25753;DHT22;13600;50.816;4.416;2022-10-18T12:27:52;41.20;51.60
25753;DHT22;13600;50.816;4.416;2022-10-18T12:33:07;41.10;51.30
25753;DHT22;13600;50.816;4.416;2022-10-18T12:35:47;41.40;49.90
25753;DHT22;13600;50.816;4.416;2022-10-18T12:38:22;41.10;50.30
25753;DHT22;13600;50.816;4.416;2022-10-18T12:40:51;40.30;50.10
25753;DHT22;13600;50.816;4.416;2022-10-18T12:43:22;40.20;51.50
25753;DHT22;13600;50.816;4.416;2022-10-18T12:45:50;40.60;51.40
25753;DHT22;13600;50.816;4.416;2022-10-18T12:51:14;40.00;50.20
25753;DHT22;13600;50.816;4.416;2022-10-18T12:53:42;40.20;51.20
25753;DHT22;13600;50.816;4.416;2022-10-18T13:09:30;40.60;48.80
25753;DHT22;13600;50.816;4.416;2022-10-18T13:14:52;41.00;49.90
25753;DHT22;13600;50.816;4.416;2022-10-18T13:17:48;40.30;49.00
25753;DHT22;13600;50.816;4.416;2022-10-18T13:20:39;39.60;48.70
25753;DHT22;13600;50.816;4.416;2022-10-18T13:31:56;37.70;51.90
25753;DHT22;13600;50.816;4.416;2022-10-18T13:34:33;37.60;52.60
25753;DHT22;13600;50.816;4.416;2022-10-18T13:39:36;37.50;53.30
25753;DHT22;13600;50.816;4.416;2022-10-18T13:44:35;37.50;52.50
25753;DHT22;13600;50.816;4.416;2022-10-18T13:49:51;36.70;53.90
25753;DHT22;13600;50.816;4.416;2022-10-18T13:55:24;35.50;55.00
25753;DHT22;13600;50.816;4.416;2022-10-18T14:03:41;35.30;56.10
25753;DHT22;13600;50.816;4.416;2022-10-18T14:06:22;34.20;56.40
25753;DHT22;13600;50.816;4.416;2022-10-18T14:09:11;33.70;58.70
25753;DHT22;13600;50.816;4.416;2022-10-18T14:11:43;32.70;59.20
25753;DHT22;13600;50.816;4.416;2022-10-18T14:14:31;32.30;59.70
25753;DHT22;13600;50.816;4.416;2022-10-18T14:22:52;30.40;64.80
25753;DHT22;13600;50.816;4.416;2022-10-18T14:27:45;28.20;70.70
25753;DHT22;13600;50.816;4.416;2022-10-18T14:32:50;27.50;75.20
25753;DHT22;13600;50.816;4.416;2022-10-18T14:35:24;26.90;77.40
25753;DHT22;13600;50.816;4.416;2022-10-18T14:37:53;26.80;78.80
25753;DHT22;13600;50.816;4.416;2022-10-18T14:40:37;26.70;79.50
25753;DHT22;13600;50.816;4.416;2022-10-18T14:43:11;26.60;82.10
25753;DHT22;13600;50.816;4.416;2022-10-18T14:45:38;26.30;83.50
25753;DHT22;13600;50.816;4.416;2022-10-18T14:48:06;25.90;85.50
25753;DHT22;13600;50.816;4.416;2022-10-18T14:50:32;25.70;85.80
25753;DHT22;13600;50.816;4.416;2022-10-18T14:53:04;25.70;87.80
25753;DHT22;13600;50.816;4.416;2022-10-18T14:55:30;25.60;89.60
25753;DHT22;13600;50.816;4.416;2022-10-18T14:57:57;25.40;89.60
25753;DHT22;13600;50.816;4.416;2022-10-18T15:00:35;25.60;89.30
25753;DHT22;13600;50.816;4.416;2022-10-18T15:03:03;25.40;91.30
25753;DHT22;13600;50.816;4.416;2022-10-18T15:05:30;25.10;92.10
25753;DHT22;13600;50.816;4.416;2022-10-18T15:07:56;25.10;93.50
25753;DHT22;13600;50.816;4.416;2022-10-18T15:10:29;24.70;94.10
25753;DHT22;13600;50.816;4.416;2022-10-18T15:12:57;24.60;95.30
25753;DHT22;13600;50.816;4.416;2022-10-18T15:15:28;24.70;96.00
25753;DHT22;13600;50.816;4.416;2022-10-18T15:17:56;24.90;95.50
25753;DHT22;13600;50.816;4.416;2022-10-18T15:20:26;24.90;95.30
25753;DHT22;13600;50.816;4.416;2022-10-18T15:22:52;24.90;96.10
25753;DHT22;13600;50.816;4.416;2022-10-18T15:25:24;24.50;96.70
25753;DHT22;13600;50.816;4.416;2022-10-18T15:27:54;24.10;98.20
25753;DHT22;13600;50.816;4.416;2022-10-18T15:30:40;24.10;98.80
25753;DHT22;13600;50.816;4.416;2022-10-18T15:33:16;24.00;98.70
25753;DHT22;13600;50.816;4.416;2022-10-18T15:35:44;23.90;98.80
25753;DHT22;13600;50.816;4.416;2022-10-18T15:38:15;23.80;99.90
25753;DHT22;13600;50.816;4.416;2022-10-18T15:40:41;23.70;99.60
25753;DHT22;13600;50.816;4.416;2022-10-18T15:45:53;23.50;99.90
25753;DHT22;13600;50.816;4.416;2022-10-18T15:48:25;23.50;99.90
25753;DHT22;13600;50.816;4.416;2022-10-18T15:50:55;23.40;99.90
25753;DHT22;13600;50.816;4.416;2022-10-18T15:56:51;23.40;99.90
25753;DHT22;13600;50.816;4.416;2022-10-18T15:58:52;23.20;99.90
25753;DHT22;13600;50.816;4.416;2022-10-18T16:01:22;23.20;99.90
25753;DHT22;13600;50.816;4.416;2022-10-18T16:03:50;23.20;99.90
25753;DHT22;13600;50.816;4.416;2022-10-18T16:06:17;23.00;99.90
25753;DHT22;13600;50.816;4.416;2022-10-18T16:08:51;22.90;99.90
25753;DHT22;13600;50.816;4.416;2022-10-18T16:11:19;23.00;99.90
25753;DHT22;13600;50.816;4.416;2022-10-18T16:13:45;22.80;99.90
25753;DHT22;13600;50.816;4.416;2022-10-18T16:18:44;22.80;99.90
25753;DHT22;13600;50.816;4.416;2022-10-18T16:21:24;22.70;99.90
25753;DHT22;13600;50.816;4.416;2022-10-18T16:23:50;22.50;99.90
25753;DHT22;13600;50.816;4.416;2022-10-18T16:26:17;22.40;99.90
25753;DHT22;13600;50.816;4.416;2022-10-18T16:28:43;22.20;99.90
25753;DHT22;13600;50.816;4.416;2022-10-18T16:31:14;22.00;99.90
25753;DHT22;13600;50.816;4.416;2022-10-18T16:33:40;22.10;99.90
25753;DHT22;13600;50.816;4.416;2022-10-18T16:36:06;22.10;99.90
25753;DHT22;13600;50.816;4.416;2022-10-18T16:38:34;22.00;99.90
25753;DHT22;13600;50.816;4.416;2022-10-18T16:41:03;21.90;99.90
25753;DHT22;13600;50.816;4.416;2022-10-18T16:43:30;21.80;99.90
25753;DHT22;13600;50.816;4.416;2022-10-18T16:45:56;21.70;99.90
25753;DHT22;13600;50.816;4.416;2022-10-18T16:48:23;21.50;99.90
25753;DHT22;13600;50.816;4.416;2022-10-18T16:50:52;21.40;99.90
25753;DHT22;13600;50.816;4.416;2022-10-18T16:53:18;21.50;99.90
25753;DHT22;13600;50.816;4.416;2022-10-18T16:55:52;21.40;99.90
25753;DHT22;13600;50.816;4.416;2022-10-18T16:58:19;21.40;99.90
25753;DHT22;13600;50.816;4.416;2022-10-18T17:00:45;21.30;99.90
25753;DHT22;13600;50.816;4.416;2022-10-18T17:03:14;21.10;99.90
25753;DHT22;13600;50.816;4.416;2022-10-18T17:05:40;21.10;99.90
25753;DHT22;13600;50.816;4.416;2022-10-18T17:08:34;21.10;99.90
25753;DHT22;13600;50.816;4.416;2022-10-18T17:11:00;20.90;99.90
25753;DHT22;13600;50.816;4.416;2022-10-18T17:13:26;20.90;99.90
25753;DHT22;13600;50.816;4.416;2022-10-18T17:15:52;20.90;99.90
25753;DHT22;13600;50.816;4.416;2022-10-18T17:18:21;20.80;99.90
25753;DHT22;13600;50.816;4.416;2022-10-18T17:20:48;20.70;99.90
25753;DHT22;13600;50.816;4.416;2022-10-18T17:23:14;20.60;99.90
25753;DHT22;13600;50.816;4.416;2022-10-18T17:25:41;20.50;99.90
25753;DHT22;13600;50.816;4.416;2022-10-18T17:28:15;20.60;99.90
25753;DHT22;13600;50.816;4.416;2022-10-18T17:30:42;20.60;99.90
25753;DHT22;13600;50.816;4.416;2022-10-18T17:33:09;20.50;99.90
25753;DHT22;13600;50.816;4.416;2022-10-18T17:35:35;20.50;99.90
25753;DHT22;13600;50.816;4.416;2022-10-18T17:38:00;20.40;99.90
25753;DHT22;13600;50.816;4.416;2022-10-18T17:40:26;20.30;99.90
25753;DHT22;13600;50.816;4.416;2022-10-18T17:42:53;20.30;99.90
25753;DHT22;13600;50.816;4.416;2022-10-18T17:45:19;20.20;99.90
25753;DHT22;13600;50.816;4.416;2022-10-18T17:47:45;20.10;99.90
25753;DHT22;13600;50.816;4.416;2022-10-18T17:50:11;20.10;99.90
25753;DHT22;13600;50.816;4.416;2022-10-18T17:52:41;20.00;99.90
25753;DHT22;13600;50.816;4.416;2022-10-18T17:55:08;20.10;99.90
25753;DHT22;13600;50.816;4.416;2022-10-18T17:57:33;20.10;99.90
25753;DHT22;13600;50.816;4.416;2022-10-18T17:59:59;20.10;99.90
25753;DHT22;13600;50.816;4.416;2022-10-18T18:02:27;19.80;99.90
25753;DHT22;13600;50.816;4.416;2022-10-18T18:04:53;19.70;99.90
25753;DHT22;13600;50.816;4.416;2022-10-18T18:07:19;19.60;99.90
25753;DHT22;13600;50.816;4.416;2022-10-18T18:09:45;19.40;99.90
25753;DHT22;13600;50.816;4.416;2022-10-18T18:12:11;19.50;99.90
25753;DHT22;13600;50.816;4.416;2022-10-18T18:14:37;19.60;99.90
25753;DHT22;13600;50.816;4.416;2022-10-18T18:17:03;19.40;99.90
25753;DHT22;13600;50.816;4.416;2022-10-18T18:19:29;19.20;99.90
25753;DHT22;13600;50.816;4.416;2022-10-18T18:21:55;19.20;99.90
25753;DHT22;13600;50.816;4.416;2022-10-18T18:24:23;19.30;99.90
25753;DHT22;13600;50.816;4.416;2022-10-18T18:26:50;19.30;99.90
25753;DHT22;13600;50.816;4.416;2022-10-18T18:29:18;19.20;99.90